createdAt,value
2018-06-13T00:00:29.385Z,6.40
2018-06-13T00:03:32.650Z,5.47
2018-06-13T00:06:35.870Z,6.03
2018-06-13T00:09:39.153Z,5.77
2018-06-13T00:12:42.385Z,6.27
2018-06-13T00:15:45.605Z,6.40
2018-06-13T00:18:48.649Z,6.00
2018-06-13T00:21:51.855Z,6.30
2018-06-13T00:24:55.159Z,6.20
2018-06-13T00:27:58.560Z,6.40
2018-06-13T00:31:01.742Z,6.37
2018-06-13T00:34:05.022Z,6.43
2018-06-13T00:37:08.256Z,6.30
2018-06-13T00:40:11.203Z,6.43
2018-06-13T00:43:14.426Z,6.03
2018-06-13T00:46:18.518Z,6.00
2018-06-13T00:49:21.709Z,6.77
2018-06-13T00:52:24.950Z,7.17
2018-06-13T00:55:28.218Z,6.53
2018-06-13T00:58:31.414Z,6.83
2018-06-13T01:01:34.660Z,7.20
2018-06-13T01:04:37.974Z,6.20
2018-06-13T01:07:41.252Z,7.00
2018-06-13T01:10:44.518Z,6.77
2018-06-13T01:13:47.428Z,6.70
2018-06-13T01:16:50.611Z,6.90
2018-06-13T01:19:53.948Z,7.20
2018-06-13T01:22:57.204Z,7.17
2018-06-13T01:26:00.486Z,6.60
2018-06-13T01:29:03.516Z,8.23
2018-06-13T01:32:06.818Z,7.37
2018-06-13T01:35:09.998Z,7.20
2018-06-13T01:38:13.375Z,6.57
2018-06-13T01:41:20.605Z,7.17
2018-06-13T01:44:23.845Z,7.33
2018-06-13T01:47:27.116Z,8.30
2018-06-13T01:50:30.321Z,8.33
2018-06-13T01:53:33.587Z,7.80
2018-06-13T01:56:36.785Z,7.33
2018-06-13T01:59:40.114Z,7.50
2018-06-13T02:02:43.310Z,7.87
2018-06-13T02:05:46.533Z,8.53
2018-06-13T02:08:49.753Z,8.07
2018-06-13T02:11:53.022Z,8.00
2018-06-13T02:14:56.241Z,7.90
2018-06-13T02:17:59.390Z,10.50
2018-06-13T02:21:02.361Z,7.77
2018-06-13T02:24:05.806Z,8.30
2018-06-13T02:27:09.030Z,7.87
2018-06-13T02:30:12.325Z,7.57
2018-06-13T02:33:15.556Z,7.77
2018-06-13T02:36:18.577Z,9.57
2018-06-13T02:39:21.814Z,9.23
2018-06-13T02:42:25.014Z,7.97
2018-06-13T02:45:28.274Z,8.70
2018-06-13T02:48:31.562Z,6.07
2018-06-13T02:51:34.818Z,6.93
2018-06-13T02:54:37.873Z,7.00
2018-06-13T02:57:41.169Z,6.53
2018-06-13T03:00:44.482Z,6.33
2018-06-13T03:03:47.687Z,7.53
2018-06-13T03:06:50.950Z,7.10
2018-06-13T03:09:54.138Z,6.27
2018-06-13T03:12:57.414Z,6.73
2018-06-13T03:16:00.706Z,8.27
2018-06-13T03:19:03.881Z,7.33
2018-06-13T03:22:06.981Z,6.93
2018-06-13T03:25:10.246Z,7.27
2018-06-13T03:28:13.385Z,9.13
2018-06-13T03:31:16.605Z,7.73
2018-06-13T03:34:19.919Z,7.83
2018-06-13T03:37:23.165Z,7.20
2018-06-13T03:40:26.483Z,8.17
2018-06-13T03:43:29.800Z,7.60
2018-06-13T03:46:33.048Z,7.63
2018-06-13T03:49:36.370Z,7.33
2018-06-13T03:52:39.571Z,7.13
2018-06-13T03:55:42.763Z,7.43
2018-06-13T03:58:46.054Z,6.53
2018-06-13T04:01:49.289Z,7.30
2018-06-13T04:04:52.459Z,7.00
2018-06-13T04:07:55.638Z,6.13
2018-06-13T04:10:58.925Z,6.43
2018-06-13T04:14:02.306Z,6.30
2018-06-13T04:17:05.653Z,5.93
2018-06-13T04:20:08.832Z,5.40
2018-06-13T04:23:12.120Z,3.87
2018-06-13T04:26:15.419Z,3.90
2018-06-13T04:29:18.626Z,4.30
2018-06-13T04:32:22.031Z,3.30
2018-06-13T04:35:25.234Z,3.10
2018-06-13T04:38:28.510Z,3.10
2018-06-13T04:41:31.818Z,3.20
2018-06-13T04:44:35.011Z,3.03
2018-06-13T04:47:38.226Z,3.20
2018-06-13T04:50:41.553Z,3.00
2018-06-13T04:53:44.746Z,3.17
2018-06-13T04:56:48.024Z,3.30
2018-06-13T04:59:51.286Z,3.67
2018-06-13T05:02:54.641Z,3.60
2018-06-13T05:05:57.954Z,3.23
2018-06-13T05:09:01.263Z,3.37
2018-06-13T05:12:04.594Z,3.37
2018-06-13T05:15:07.602Z,2.90
2018-06-13T05:18:10.679Z,3.20
2018-06-13T05:21:13.690Z,3.67
2018-06-13T05:24:16.718Z,3.43
2018-06-13T05:27:19.914Z,3.57
2018-06-13T05:30:23.313Z,3.40
2018-06-13T05:33:26.653Z,3.53
2018-06-13T05:36:29.605Z,3.30
2018-06-13T05:39:32.743Z,3.17
2018-06-13T05:42:35.962Z,3.33
2018-06-13T05:45:39.233Z,3.40
2018-06-13T05:48:42.302Z,2.70
2018-06-13T05:51:45.578Z,3.20
2018-06-13T05:54:53.627Z,2.80
2018-06-13T05:57:56.829Z,2.83
2018-06-13T06:00:59.818Z,3.17
2018-06-13T06:04:03.023Z,2.73
2018-06-13T06:07:06.275Z,2.87
2018-06-13T06:10:09.571Z,2.77
2018-06-13T06:13:12.874Z,2.90
2018-06-13T06:16:16.154Z,2.67
2018-06-13T06:19:19.552Z,2.97
2018-06-13T06:22:22.826Z,2.80
2018-06-13T06:25:26.009Z,3.13
2018-06-13T06:28:29.222Z,2.50
2018-06-13T06:31:32.454Z,3.00
2018-06-13T06:34:35.740Z,2.60
2018-06-13T06:37:39.713Z,2.80
2018-06-13T06:40:43.082Z,2.50
2018-06-13T06:43:46.353Z,2.40
2018-06-13T06:46:49.630Z,2.57
2018-06-13T06:49:52.851Z,2.67
2018-06-13T06:52:56.098Z,2.80
2018-06-13T06:55:59.448Z,2.43
2018-06-13T06:59:02.494Z,2.47
2018-06-13T07:02:05.691Z,2.77
2018-06-13T07:05:08.858Z,2.50
2018-06-13T07:08:22.506Z,2.57
2018-06-13T07:11:25.722Z,2.50
2018-06-13T07:14:28.951Z,3.67
2018-06-13T07:17:31.972Z,3.47
2018-06-13T07:20:35.284Z,3.20
2018-06-13T07:23:38.599Z,3.27
2018-06-13T07:26:41.987Z,3.20
2018-06-13T07:29:45.232Z,3.10
2018-06-13T07:32:48.281Z,3.47
2018-06-13T07:35:51.558Z,3.17
2018-06-13T07:38:54.814Z,3.47
2018-06-13T07:41:57.786Z,3.13
2018-06-13T07:45:01.084Z,2.80
2018-06-13T07:48:04.174Z,2.90
2018-06-13T07:51:07.375Z,2.70
2018-06-13T07:54:10.658Z,2.70
2018-06-13T07:57:13.825Z,3.40
2018-06-13T08:00:17.026Z,3.00
2018-06-13T08:03:20.266Z,3.33
2018-06-13T08:06:23.485Z,3.10
2018-06-13T08:09:26.737Z,3.30
2018-06-13T08:12:29.804Z,3.00
2018-06-13T08:15:33.031Z,2.70
2018-06-13T08:18:36.268Z,3.30
2018-06-13T08:21:39.484Z,2.80
2018-06-13T08:24:53.338Z,2.90
2018-06-13T08:27:56.553Z,3.10
2018-06-13T08:30:59.693Z,2.70
2018-06-13T08:34:02.802Z,2.90
2018-06-13T08:37:05.877Z,3.00
2018-06-13T08:40:08.963Z,2.20
2018-06-13T08:43:12.057Z,2.37
2018-06-13T08:46:15.154Z,2.27
2018-06-13T08:49:18.221Z,2.13
2018-06-13T08:52:21.350Z,2.33
2018-06-13T08:55:24.449Z,2.57
2018-06-13T08:58:27.517Z,2.10
2018-06-13T09:01:30.594Z,2.50
2018-06-13T09:04:33.661Z,2.10
2018-06-13T09:07:36.525Z,2.43
2018-06-13T09:10:39.590Z,2.13
2018-06-13T09:13:42.665Z,2.40
2018-06-13T09:16:45.737Z,2.50
2018-06-13T09:19:48.837Z,1.93
2018-06-13T09:22:52.172Z,2.90
2018-06-13T09:25:55.300Z,2.30
2018-06-13T09:28:58.140Z,2.13
2018-06-13T09:32:01.226Z,2.13
2018-06-13T09:35:04.321Z,2.80
2018-06-13T09:38:07.385Z,2.33
2018-06-13T09:41:10.493Z,2.47
2018-06-13T09:44:13.597Z,2.90
2018-06-13T09:47:23.456Z,2.40
2018-06-13T09:50:19.771Z,2.70
2018-06-13T09:53:22.813Z,2.33
2018-06-13T09:56:25.685Z,2.20
2018-06-13T09:59:34.285Z,2.40
2018-06-13T10:02:37.891Z,2.30
2018-06-13T10:05:40.969Z,2.70
2018-06-13T10:08:44.131Z,2.40
2018-06-13T10:11:46.971Z,2.60
2018-06-13T10:14:50.084Z,2.47
2018-06-13T10:17:53.121Z,3.47
2018-06-13T10:20:56.245Z,3.77
2018-06-13T10:23:59.309Z,3.60
2018-06-13T10:27:06.642Z,3.33
2018-06-13T10:30:09.717Z,3.20
2018-06-13T10:33:12.802Z,3.30
2018-06-13T10:36:15.882Z,3.33
2018-06-13T10:39:18.953Z,3.10
2018-06-13T10:42:22.032Z,3.43
2018-06-13T10:45:25.117Z,3.50
2018-06-13T10:48:28.202Z,3.07
2018-06-13T10:51:34.281Z,3.50
2018-06-13T10:54:37.369Z,3.30
2018-06-13T10:57:40.429Z,3.77
2018-06-13T11:00:43.526Z,3.73
2018-06-13T11:03:46.468Z,3.23
2018-06-13T11:06:49.542Z,3.83
2018-06-13T11:09:52.630Z,3.10
2018-06-13T11:12:55.771Z,3.13
2018-06-13T11:15:58.951Z,3.23
2018-06-13T11:19:02.014Z,2.67
2018-06-13T11:22:05.095Z,2.50
2018-06-13T11:25:08.157Z,2.83
2018-06-13T11:28:11.012Z,2.83
2018-06-13T11:31:14.090Z,2.40
2018-06-13T11:34:17.154Z,2.50
2018-06-13T11:37:20.254Z,2.80
2018-06-13T11:40:23.321Z,3.40
2018-06-13T11:43:26.405Z,3.40
2018-06-13T11:46:29.510Z,3.03
2018-06-13T11:49:32.573Z,3.50
2018-06-13T11:52:35.433Z,3.40
2018-06-13T11:55:38.497Z,3.47
2018-06-13T11:58:41.585Z,3.00
2018-06-13T12:01:44.721Z,3.50
2018-06-13T12:04:49.952Z,3.13
2018-06-13T12:07:53.116Z,3.50
2018-06-13T12:10:56.204Z,3.23
2018-06-13T12:13:59.281Z,3.97
2018-06-13T12:17:02.401Z,3.33
2018-06-13T12:20:05.429Z,2.90
2018-06-13T12:23:08.312Z,3.33
2018-06-13T12:26:11.374Z,3.13
2018-06-13T12:29:14.785Z,2.93
2018-06-13T12:32:17.857Z,2.93
2018-06-13T12:35:20.926Z,2.87
2018-06-13T12:38:41.135Z,3.47
2018-06-13T12:41:44.229Z,3.23
2018-06-13T12:44:47.321Z,2.87
2018-06-13T12:47:50.425Z,2.53
2018-06-13T12:50:53.536Z,2.00
2018-06-13T12:53:56.572Z,2.27
2018-06-13T12:56:59.653Z,2.33
2018-06-13T13:00:02.729Z,2.10
2018-06-13T13:03:05.889Z,2.27
2018-06-13T13:06:08.977Z,1.83
2018-06-13T13:09:13.514Z,1.90
2018-06-13T13:12:16.598Z,1.90
2018-06-13T13:15:19.649Z,1.80
2018-06-13T13:18:22.728Z,2.10
2018-06-13T13:21:25.790Z,1.60
2018-06-13T13:24:28.871Z,1.80
2018-06-13T13:27:38.573Z,1.70
2018-06-13T13:30:41.626Z,2.00
2018-06-13T13:33:44.524Z,2.10
2018-06-13T13:36:47.629Z,2.00
2018-06-13T13:39:50.687Z,2.07
2018-06-13T13:42:53.745Z,2.67
2018-06-13T13:45:56.880Z,2.00
2018-06-13T13:48:59.898Z,2.17
2018-06-13T13:52:02.997Z,2.63
2018-06-13T13:55:06.177Z,2.40
2018-06-13T13:58:09.265Z,2.27
2018-06-13T14:01:12.341Z,2.50
2018-06-13T14:04:15.435Z,2.47
2018-06-13T14:07:18.283Z,2.10
2018-06-13T14:10:21.372Z,2.20
2018-06-13T14:13:24.470Z,2.40
2018-06-13T14:16:27.590Z,2.27
2018-06-13T14:19:31.046Z,2.50
2018-06-13T14:22:34.171Z,2.37
2018-06-13T14:25:37.208Z,2.77
2018-06-13T14:28:40.287Z,2.30
2018-06-13T14:31:43.366Z,2.70
2018-06-13T14:34:46.433Z,2.00
2018-06-13T14:37:49.500Z,2.43
2018-06-13T14:40:52.569Z,2.00
2018-06-13T14:43:55.626Z,2.37
2018-06-13T14:46:58.685Z,2.63
2018-06-13T14:50:01.753Z,2.70
2018-06-13T14:53:04.802Z,2.67
2018-06-13T14:56:13.674Z,3.30
2018-06-13T14:59:16.755Z,3.00
2018-06-13T15:02:19.852Z,3.30
2018-06-13T15:05:23.303Z,3.83
2018-06-13T15:08:26.161Z,3.97
2018-06-13T15:11:29.246Z,3.50
2018-06-13T15:14:32.349Z,3.97
2018-06-13T15:17:35.419Z,3.90
2018-06-13T15:20:42.436Z,5.20
2018-06-13T15:23:45.657Z,3.70
2018-06-13T15:26:48.821Z,3.77
2018-06-13T15:29:51.796Z,3.67
2018-06-13T15:32:54.849Z,3.93
2018-06-13T15:35:57.924Z,4.30
2018-06-13T15:39:00.985Z,4.33
2018-06-13T15:42:03.853Z,5.00
2018-06-13T15:45:06.987Z,4.77
2018-06-13T15:48:10.045Z,4.53
2018-06-13T15:51:13.107Z,3.90
2018-06-13T15:54:16.181Z,3.97
2018-06-13T15:57:19.248Z,4.13
2018-06-13T16:00:22.341Z,4.00
2018-06-13T16:03:25.407Z,4.67
2018-06-13T16:06:28.344Z,4.80
2018-06-13T16:09:31.426Z,4.30
2018-06-13T16:12:49.387Z,4.53
2018-06-13T16:15:52.450Z,4.20
2018-06-13T16:18:55.488Z,3.80
2018-06-13T16:21:58.589Z,3.37
2018-06-13T16:25:01.654Z,4.10
2018-06-13T16:28:04.750Z,3.67
2018-06-13T16:31:07.825Z,3.57
2018-06-13T16:34:10.888Z,4.07
2018-06-13T16:37:13.997Z,4.23
2018-06-13T16:40:17.058Z,4.40
2018-06-13T16:43:20.169Z,4.60
2018-06-13T16:46:23.262Z,4.10
2018-06-13T16:49:26.328Z,3.80
2018-06-13T16:52:34.751Z,4.30
2018-06-13T16:55:37.616Z,3.67
2018-06-13T16:58:40.697Z,4.07
2018-06-13T17:01:43.761Z,4.20
2018-06-13T17:04:46.826Z,5.03
2018-06-13T17:07:49.936Z,4.40
2018-06-13T17:10:53.014Z,5.13
2018-06-13T17:13:56.083Z,4.13
2018-06-13T17:17:23.189Z,4.00
2018-06-13T17:20:26.282Z,4.17
2018-06-13T17:23:29.573Z,4.90
2018-06-13T17:26:32.642Z,4.80
2018-06-13T17:29:35.693Z,7.80
2018-06-13T17:32:38.568Z,6.53
2018-06-13T17:35:41.663Z,5.13
2018-06-13T17:38:44.734Z,5.30
2018-06-13T17:41:47.830Z,5.30
2018-06-13T17:44:50.887Z,4.30
2018-06-13T17:47:54.332Z,5.50
2018-06-13T17:50:57.373Z,5.47
2018-06-13T17:54:00.467Z,6.50
2018-06-13T17:57:03.523Z,6.17
2018-06-13T18:00:06.605Z,6.40
2018-06-13T18:03:09.479Z,6.33
2018-06-13T18:06:12.523Z,5.20
2018-06-13T18:09:15.725Z,5.77
2018-06-13T18:12:18.793Z,6.47
2018-06-13T18:15:21.850Z,5.53
2018-06-13T18:18:24.902Z,4.57
2018-06-13T18:21:28.021Z,5.27
2018-06-13T18:24:31.137Z,4.43
2018-06-13T18:27:33.994Z,4.23
2018-06-13T18:30:37.073Z,4.80
2018-06-13T18:33:40.152Z,4.33
2018-06-13T18:36:43.362Z,4.43
2018-06-13T18:39:46.468Z,3.87
2018-06-13T18:42:49.537Z,4.57
2018-06-13T18:45:52.586Z,3.87
2018-06-13T18:48:55.649Z,3.70
2018-06-13T18:51:58.773Z,4.10
2018-06-13T18:55:01.892Z,4.07
2018-06-13T18:58:04.945Z,4.43
2018-06-13T19:01:07.821Z,6.60
2018-06-13T19:04:10.724Z,5.57
2018-06-13T19:07:13.798Z,4.30
2018-06-13T19:10:16.825Z,4.00
2018-06-13T19:13:19.918Z,4.37
2018-06-13T19:16:22.996Z,4.83
2018-06-13T19:19:26.105Z,4.60
2018-06-13T19:22:29.181Z,4.90
2018-06-13T19:25:32.245Z,3.80
2018-06-13T19:28:35.333Z,6.60
2018-06-13T19:31:38.404Z,7.57
2018-06-13T19:34:41.485Z,4.60
2018-06-13T19:37:44.677Z,4.60
2018-06-13T19:40:47.781Z,4.33
2018-06-13T19:43:50.861Z,4.13
2018-06-13T19:46:56.521Z,4.60
2018-06-13T19:49:59.614Z,6.33
2018-06-13T19:53:08.145Z,18.37
2018-06-13T19:56:12.153Z,7.93
2018-06-13T19:59:15.230Z,6.87
2018-06-13T20:02:18.310Z,5.47
2018-06-13T20:05:26.796Z,4.97
2018-06-13T20:08:29.877Z,5.83
2018-06-13T20:11:32.949Z,5.73
2018-06-13T20:14:41.506Z,4.50
2018-06-13T20:17:50.379Z,5.17
2018-06-13T20:20:53.449Z,5.50
2018-06-13T20:23:56.530Z,4.80
2018-06-13T20:27:05.090Z,6.20
2018-06-13T20:30:13.639Z,4.10
2018-06-13T20:33:23.037Z,4.70
2018-06-13T20:36:26.100Z,4.87
2018-06-13T20:39:29.190Z,7.87
2018-06-13T20:42:32.310Z,10.17
2018-06-13T20:45:35.377Z,6.17
2018-06-13T20:48:38.429Z,4.97
2018-06-13T20:51:41.515Z,4.90
2018-06-13T20:54:44.617Z,5.13
2018-06-13T20:57:47.701Z,4.60
2018-06-13T21:00:50.650Z,5.83
2018-06-13T21:03:53.697Z,9.93
2018-06-13T21:06:56.780Z,4.70
2018-06-13T21:09:59.870Z,4.10
2018-06-13T21:13:02.959Z,4.70
2018-06-13T21:16:05.812Z,4.50
2018-06-13T21:19:08.904Z,4.03
2018-06-13T21:22:11.982Z,4.30
2018-06-13T21:25:15.070Z,4.50
2018-06-13T21:28:18.138Z,4.30
2018-06-13T21:31:21.226Z,4.20
2018-06-13T21:34:24.299Z,3.83
2018-06-13T21:37:27.362Z,4.30
2018-06-13T21:40:30.421Z,4.83
2018-06-13T21:43:33.476Z,4.57
2018-06-13T21:46:36.544Z,4.20
2018-06-13T21:49:39.399Z,4.10
2018-06-13T21:52:42.489Z,4.60
2018-06-13T21:55:45.560Z,4.33
2018-06-13T21:58:48.666Z,4.57
2018-06-13T22:01:51.869Z,4.37
2018-06-13T22:04:54.929Z,5.10
2018-06-13T22:07:58.005Z,20.17
2018-06-13T22:11:01.081Z,4.87
2018-06-13T22:14:04.157Z,5.20
2018-06-13T22:17:07.028Z,4.50
2018-06-13T22:20:10.108Z,4.80
2018-06-13T22:23:13.198Z,4.10
2018-06-13T22:26:16.252Z,4.27
2018-06-13T22:29:19.317Z,4.37
2018-06-13T22:32:22.204Z,4.53
2018-06-13T22:35:25.289Z,4.60
2018-06-13T22:38:28.361Z,4.63
2018-06-13T22:41:31.458Z,4.37
2018-06-13T22:44:34.549Z,4.40
2018-06-13T22:47:37.601Z,4.00
2018-06-13T22:50:40.682Z,4.33
2018-06-13T22:53:43.741Z,4.30
2018-06-13T22:56:46.639Z,4.17
2018-06-13T22:59:49.707Z,4.13
2018-06-13T23:02:52.778Z,3.97
2018-06-13T23:05:55.861Z,5.03
2018-06-13T23:08:58.926Z,3.73
2018-06-13T23:12:02.022Z,4.17
2018-06-13T23:15:05.294Z,4.10
2018-06-13T23:18:08.374Z,3.90
2018-06-13T23:21:11.244Z,4.10
2018-06-13T23:24:14.096Z,4.20
2018-06-13T23:27:17.163Z,3.97
2018-06-13T23:30:20.237Z,4.50
2018-06-13T23:33:23.330Z,3.73
2018-06-13T23:36:26.426Z,4.37
2018-06-13T23:39:29.515Z,4.43
2018-06-13T23:42:32.572Z,4.63
2018-06-13T23:45:35.637Z,5.23
2018-06-13T23:48:38.705Z,4.50
2018-06-13T23:51:41.790Z,4.57
2018-06-13T23:54:44.881Z,4.87
2018-06-13T23:57:47.980Z,4.50
